createdAt,value
2018-07-04T00:01:37.054Z,72.30
2018-07-04T00:04:15.996Z,72.40
2018-07-04T00:06:54.831Z,72.50
2018-07-04T00:09:34.821Z,72.60
2018-07-04T00:12:13.656Z,72.80
2018-07-04T00:14:52.715Z,72.70
2018-07-04T00:17:31.548Z,72.50
2018-07-04T00:20:10.323Z,72.70
2018-07-04T00:22:49.328Z,72.70
2018-07-04T00:25:28.287Z,72.70
2018-07-04T00:28:07.132Z,72.90
2018-07-04T00:30:46.082Z,72.80
2018-07-04T00:33:25.007Z,73.00
2018-07-04T00:36:03.985Z,73.20
2018-07-04T00:38:42.755Z,73.30
2018-07-04T00:41:21.586Z,73.40
2018-07-04T00:44:00.492Z,74.10
2018-07-04T00:46:39.589Z,74.30
2018-07-04T00:51:51.673Z,74.50
2018-07-04T00:54:30.630Z,74.60
2018-07-04T00:57:09.609Z,74.60
2018-07-04T00:59:48.726Z,74.90
2018-07-04T01:02:28.218Z,75.10
2018-07-04T01:05:07.136Z,75.30
2018-07-04T01:07:46.068Z,75.40
2018-07-04T01:10:24.995Z,75.50
2018-07-04T01:13:04.524Z,75.10
2018-07-04T01:15:43.455Z,74.50
2018-07-04T01:18:23.779Z,74.50
2018-07-04T01:21:08.341Z,74.70
2018-07-04T01:23:47.321Z,75.30
2018-07-04T01:26:26.135Z,75.50
2018-07-04T01:29:05.181Z,75.70
2018-07-04T01:31:44.206Z,75.80
2018-07-04T01:34:23.857Z,75.90
2018-07-04T01:37:02.915Z,76.10
2018-07-04T01:39:41.818Z,76.30
2018-07-04T01:42:20.557Z,76.40
2018-07-04T01:44:59.592Z,76.60
2018-07-04T01:47:38.576Z,76.60
2018-07-04T01:50:17.317Z,76.60
2018-07-04T01:52:56.149Z,76.90
2018-07-04T01:55:35.157Z,77.10
2018-07-04T01:58:13.987Z,77.50
2018-07-04T02:00:53.008Z,77.50
2018-07-04T02:03:31.967Z,77.50
2018-07-04T02:06:10.925Z,77.30
2018-07-04T02:08:49.887Z,77.40
2018-07-04T02:11:28.940Z,77.10
2018-07-04T02:14:07.879Z,77.20
2018-07-04T02:16:46.964Z,77.20
2018-07-04T02:21:59.243Z,77.30
2018-07-04T02:24:38.107Z,77.40
2018-07-04T02:27:16.942Z,77.50
2018-07-04T02:29:55.984Z,77.80
2018-07-04T02:32:34.824Z,77.70
2018-07-04T02:35:13.663Z,78.00
2018-07-04T02:37:52.605Z,77.90
2018-07-04T02:40:31.494Z,77.80
2018-07-04T02:43:10.246Z,77.80
2018-07-04T02:45:49.033Z,77.70
2018-07-04T02:48:27.855Z,77.80
2018-07-04T02:51:06.910Z,77.80
2018-07-04T02:53:45.732Z,77.60
2018-07-04T02:56:24.740Z,77.70
2018-07-04T02:59:03.536Z,77.60
2018-07-04T03:01:42.357Z,77.60
2018-07-04T03:04:22.072Z,77.60
2018-07-04T03:07:01.040Z,77.50
2018-07-04T03:09:39.984Z,77.70
2018-07-04T03:12:18.907Z,77.80
2018-07-04T03:14:58.636Z,78.00
2018-07-04T03:17:37.559Z,78.30
2018-07-04T03:20:16.398Z,78.40
2018-07-04T03:22:55.344Z,78.30
2018-07-04T03:25:34.210Z,78.30
2018-07-04T03:28:13.889Z,78.30
2018-07-04T03:30:52.905Z,78.20
2018-07-04T03:33:31.764Z,78.00
2018-07-04T03:36:10.529Z,78.00
2018-07-04T03:38:49.295Z,77.90
2018-07-04T03:41:28.129Z,78.00
2018-07-04T03:44:06.948Z,77.90
2018-07-04T03:46:45.848Z,77.80
2018-07-04T03:49:24.839Z,77.90
2018-07-04T03:52:04.555Z,77.80
2018-07-04T03:54:43.408Z,78.00
2018-07-04T03:57:22.275Z,77.90
2018-07-04T04:00:01.155Z,77.60
2018-07-04T04:02:40.062Z,77.50
2018-07-04T04:05:19.032Z,77.50
2018-07-04T04:07:58.673Z,77.50
2018-07-04T04:10:37.499Z,77.60
2018-07-04T04:13:16.503Z,77.70
2018-07-04T04:15:55.321Z,77.60
2018-07-04T04:18:34.078Z,77.70
2018-07-04T04:21:13.201Z,77.60
2018-07-04T04:23:52.222Z,77.70
2018-07-04T04:26:31.780Z,77.60
2018-07-04T04:29:10.760Z,77.70
2018-07-04T04:31:49.786Z,77.70
2018-07-04T04:34:28.755Z,77.80
2018-07-04T04:37:07.620Z,77.90
2018-07-04T04:39:46.641Z,77.70
2018-07-04T04:42:25.497Z,77.40
2018-07-04T04:45:04.452Z,77.60
2018-07-04T04:47:43.297Z,78.00
2018-07-04T04:50:22.090Z,77.90
2018-07-04T04:53:01.876Z,77.60
2018-07-04T04:55:41.514Z,77.70
2018-07-04T04:58:20.435Z,77.50
2018-07-04T05:00:59.445Z,77.40
2018-07-04T05:03:38.431Z,77.70
2018-07-04T05:06:17.418Z,77.80
2018-07-04T05:08:57.317Z,77.90
2018-07-04T05:11:36.601Z,78.40
2018-07-04T05:14:15.404Z,78.40
2018-07-04T05:19:27.376Z,78.40
2018-07-04T05:22:06.375Z,78.10
2018-07-04T05:24:45.160Z,77.80
2018-07-04T05:27:24.085Z,77.90
2018-07-04T05:30:03.040Z,78.00
2018-07-04T05:32:41.941Z,78.10
2018-07-04T05:35:21.454Z,77.80
2018-07-04T05:38:00.410Z,77.60
2018-07-04T05:40:39.255Z,77.30
2018-07-04T05:43:18.252Z,77.10
2018-07-04T05:48:30.515Z,77.00
2018-07-04T05:51:09.363Z,76.70
2018-07-04T05:53:48.173Z,76.70
2018-07-04T05:56:27.044Z,75.90
2018-07-04T05:59:05.855Z,75.60
2018-07-04T06:01:44.955Z,75.90
2018-07-04T06:04:23.872Z,76.30
2018-07-04T06:07:02.719Z,76.40
2018-07-04T06:09:41.616Z,76.10
2018-07-04T06:12:20.456Z,76.20
2018-07-04T06:14:59.284Z,76.30
2018-07-04T06:17:38.155Z,76.30
2018-07-04T06:20:17.343Z,76.30
2018-07-04T06:22:56.282Z,76.10
2018-07-04T06:25:36.222Z,75.30
2018-07-04T06:28:15.157Z,75.20
2018-07-04T06:30:54.276Z,76.20
2018-07-04T06:33:33.179Z,76.50
2018-07-04T06:36:12.122Z,76.20
2018-07-04T06:38:38.636Z,76.60
2018-07-04T06:41:05.189Z,77.10
2018-07-04T06:43:32.190Z,77.00
2018-07-04T06:45:58.690Z,76.20
2018-07-04T06:48:25.316Z,76.40
2018-07-04T06:50:51.834Z,75.90
2018-07-04T06:53:18.329Z,75.20
2018-07-04T06:55:44.900Z,74.50
2018-07-04T06:58:11.424Z,74.50
2018-07-04T07:00:37.986Z,73.30
2018-07-04T07:03:16.948Z,72.10
2018-07-04T07:05:56.858Z,71.80
2018-07-04T07:08:35.808Z,71.80
2018-07-04T07:11:14.657Z,70.20
2018-07-04T07:13:53.558Z,70.20
2018-07-04T07:16:32.523Z,70.40
2018-07-04T07:19:11.329Z,70.30
2018-07-04T07:21:50.438Z,69.80
2018-07-04T07:24:30.437Z,69.60
2018-07-04T07:27:09.543Z,68.90
2018-07-04T07:29:48.449Z,68.70
2018-07-04T07:32:27.344Z,69.30
2018-07-04T07:35:06.147Z,68.90
2018-07-04T07:37:45.125Z,69.10
2018-07-04T07:40:24.349Z,68.50
2018-07-04T07:43:03.376Z,68.60
2018-07-04T07:45:42.303Z,67.50
2018-07-04T07:48:21.822Z,67.80
2018-07-04T07:51:00.799Z,67.00
2018-07-04T07:53:39.770Z,66.40
2018-07-04T07:56:18.648Z,66.40
2018-07-04T07:58:57.734Z,66.50
2018-07-04T08:01:36.509Z,66.40
2018-07-04T08:04:15.830Z,66.70
2018-07-04T08:06:54.823Z,67.00
2018-07-04T08:09:33.827Z,67.90
2018-07-04T08:12:12.880Z,67.30
2018-07-04T08:14:51.701Z,67.00
2018-07-04T08:17:30.495Z,67.00
2018-07-04T08:20:10.308Z,66.80
2018-07-04T08:22:49.164Z,66.60
2018-07-04T08:25:28.025Z,67.10
2018-07-04T08:28:06.842Z,67.20
2018-07-04T08:30:45.739Z,66.00
2018-07-04T08:33:25.111Z,66.40
2018-07-04T08:36:04.992Z,66.10
2018-07-04T08:38:43.807Z,65.20
2018-07-04T08:41:22.764Z,65.70
2018-07-04T08:44:01.665Z,62.80
2018-07-04T08:46:41.403Z,63.50
2018-07-04T08:49:20.198Z,59.40
2018-07-04T08:51:59.431Z,59.90
2018-07-04T08:54:39.591Z,58.60
2018-07-04T08:57:18.820Z,59.40
2018-07-04T08:59:57.709Z,57.20
2018-07-04T09:02:36.568Z,56.50
2018-07-04T09:05:15.550Z,58.20
2018-07-04T09:07:54.379Z,56.00
2018-07-04T09:10:33.979Z,56.00
2018-07-04T09:13:13.147Z,54.80
2018-07-04T09:15:52.147Z,52.10
2018-07-04T09:18:31.059Z,53.80
2018-07-04T09:21:09.930Z,52.00
2018-07-04T09:23:48.919Z,51.50
2018-07-04T09:26:28.106Z,51.10
2018-07-04T09:29:06.924Z,51.80
2018-07-04T09:31:45.803Z,50.80
2018-07-04T09:34:24.616Z,51.50
2018-07-04T09:37:04.526Z,49.90
2018-07-04T09:39:43.542Z,50.20
2018-07-04T09:42:22.501Z,50.20
2018-07-04T09:45:01.479Z,49.20
2018-07-04T09:47:40.480Z,49.50
2018-07-04T09:52:53.835Z,48.80
2018-07-04T09:55:32.852Z,47.90
2018-07-04T09:58:11.839Z,47.10
2018-07-04T10:00:56.470Z,48.10
2018-07-04T10:03:35.512Z,47.30
2018-07-04T10:06:14.368Z,45.60
2018-07-04T10:08:53.272Z,45.60
2018-07-04T10:11:32.074Z,44.70
2018-07-04T10:14:11.235Z,44.10
2018-07-04T10:16:50.205Z,44.40
2018-07-04T10:19:28.994Z,43.80
2018-07-04T10:22:08.006Z,43.30
2018-07-04T10:24:47.323Z,42.90
2018-07-04T10:27:26.171Z,41.40
2018-07-04T10:30:05.217Z,41.30
2018-07-04T10:32:44.255Z,40.90
2018-07-04T10:35:23.239Z,40.50
2018-07-04T10:38:02.357Z,41.90
2018-07-04T10:40:41.181Z,42.00
2018-07-04T10:43:20.099Z,43.20
2018-07-04T10:45:59.122Z,45.20
2018-07-04T10:48:37.957Z,46.50
2018-07-04T10:51:16.776Z,47.60
2018-07-04T10:53:55.699Z,47.60
2018-07-04T10:56:34.493Z,46.40
2018-07-04T10:59:13.336Z,47.30
2018-07-04T11:01:52.173Z,49.10
2018-07-04T11:04:31.158Z,49.80
2018-07-04T11:07:10.018Z,49.50
2018-07-04T11:09:49.008Z,49.80
2018-07-04T11:12:28.097Z,49.40
2018-07-04T11:15:07.120Z,49.60
2018-07-04T11:17:45.999Z,51.00
2018-07-04T11:20:24.976Z,52.00
2018-07-04T11:23:03.820Z,52.90
2018-07-04T11:25:42.864Z,53.60
2018-07-04T11:28:21.645Z,54.30
2018-07-04T11:31:00.468Z,53.60
2018-07-04T11:33:39.481Z,54.10
2018-07-04T11:36:18.448Z,51.00
2018-07-04T11:38:57.472Z,48.90
2018-07-04T11:41:37.069Z,49.70
2018-07-04T11:44:15.854Z,47.80
2018-07-04T11:46:42.415Z,47.20
2018-07-04T11:49:08.906Z,46.70
2018-07-04T11:51:35.403Z,43.00
2018-07-04T11:54:01.916Z,43.30
2018-07-04T11:56:28.480Z,44.90
2018-07-04T11:58:54.973Z,43.00
2018-07-04T12:01:21.517Z,43.30
2018-07-04T12:04:00.472Z,44.40
2018-07-04T12:06:39.294Z,46.00
2018-07-04T12:09:05.954Z,47.50
2018-07-04T12:11:32.529Z,48.10
2018-07-04T12:13:59.021Z,47.40
2018-07-04T12:16:25.549Z,48.20
2018-07-04T12:18:52.059Z,45.60
2018-07-04T12:21:18.952Z,44.60
2018-07-04T12:23:45.573Z,42.30
2018-07-04T12:26:12.079Z,40.80
2018-07-04T12:28:38.618Z,40.70
2018-07-04T12:31:05.140Z,41.20
2018-07-04T12:33:31.630Z,42.00
2018-07-04T12:35:58.244Z,41.90
2018-07-04T12:38:24.776Z,42.50
2018-07-04T12:40:51.544Z,39.90
2018-07-04T12:43:18.145Z,36.10
2018-07-04T12:45:44.741Z,33.90
2018-07-04T12:48:11.245Z,32.30
2018-07-04T12:50:37.767Z,31.90
2018-07-04T12:53:08.112Z,30.20
2018-07-04T12:55:48.233Z,31.80
2018-07-04T12:58:27.629Z,31.30
2018-07-04T13:01:06.437Z,28.30
2018-07-04T13:03:45.329Z,24.30
2018-07-04T13:06:24.307Z,22.40
2018-07-04T13:10:32.746Z,20.60
2018-07-04T13:13:11.611Z,19.80
2018-07-04T13:15:50.694Z,18.80
2018-07-04T13:18:29.674Z,18.80
2018-07-04T13:21:08.491Z,19.90
2018-07-04T13:23:47.475Z,20.20
2018-07-04T13:26:26.486Z,20.20
2018-07-04T13:29:05.752Z,20.30
2018-07-04T13:31:44.727Z,20.20
2018-07-04T13:34:23.784Z,21.90
2018-07-04T13:39:36.012Z,22.20
2018-07-04T13:42:14.862Z,21.20
2018-07-04T13:44:53.844Z,20.70
2018-07-04T13:47:32.715Z,20.60
2018-07-04T13:50:11.630Z,19.50
2018-07-04T13:52:50.644Z,19.40
2018-07-04T13:55:29.684Z,18.80
2018-07-04T13:58:08.542Z,19.40
2018-07-04T14:00:47.522Z,19.60
2018-07-04T14:03:26.452Z,20.90
2018-07-04T14:06:05.862Z,20.20
2018-07-04T14:08:44.824Z,21.20
2018-07-04T14:11:23.772Z,23.10
2018-07-04T14:14:02.702Z,24.10
2018-07-04T14:16:41.677Z,25.80
2018-07-04T14:19:20.529Z,27.40
2018-07-04T14:21:59.343Z,30.40
2018-07-04T14:24:38.115Z,31.60
2018-07-04T14:27:16.928Z,33.40
2018-07-04T14:29:55.737Z,33.20
2018-07-04T14:32:34.514Z,32.90
2018-07-04T14:35:13.376Z,33.60
2018-07-04T14:37:52.211Z,34.10
2018-07-04T14:40:31.082Z,34.40
2018-07-04T14:43:11.020Z,33.60
2018-07-04T14:45:49.963Z,35.40
2018-07-04T14:48:28.996Z,35.50
2018-07-04T14:51:07.938Z,35.50
2018-07-04T14:53:46.875Z,34.40
2018-07-04T14:56:25.796Z,33.00
2018-07-04T14:59:04.835Z,32.70
2018-07-04T15:01:43.620Z,31.90
2018-07-04T15:04:22.517Z,32.10
2018-07-04T15:07:01.305Z,31.20
2018-07-04T15:09:40.372Z,30.80
2018-07-04T15:12:19.218Z,30.70
2018-07-04T15:14:58.190Z,31.60
2018-07-04T15:17:37.148Z,33.00
2018-07-04T15:20:16.081Z,33.90
2018-07-04T15:22:54.959Z,34.70
2018-07-04T15:25:33.959Z,33.90
2018-07-04T15:28:12.995Z,32.50
2018-07-04T15:30:51.736Z,33.80
2018-07-04T15:33:30.733Z,33.50
2018-07-04T15:38:42.648Z,33.70
2018-07-04T15:41:21.443Z,34.00
2018-07-04T15:44:00.423Z,35.40
2018-07-04T15:46:39.256Z,35.80
2018-07-04T15:49:18.648Z,36.10
2018-07-04T15:51:57.597Z,34.50
2018-07-04T15:54:36.950Z,33.60
2018-07-04T15:57:15.987Z,33.20
2018-07-04T15:59:55.133Z,33.90
2018-07-04T16:03:37.215Z,34.20
2018-07-04T16:06:16.039Z,34.80
2018-07-04T16:08:54.928Z,33.40
2018-07-04T16:11:33.918Z,34.30
2018-07-04T16:14:13.452Z,34.00
2018-07-04T16:16:53.020Z,35.00
2018-07-04T16:19:31.888Z,35.70
2018-07-04T16:22:10.941Z,36.10
2018-07-04T16:24:49.942Z,36.80
2018-07-04T16:27:29.071Z,35.10
2018-07-04T16:30:07.956Z,37.40
2018-07-04T16:32:46.969Z,38.90
2018-07-04T16:35:25.792Z,40.20
2018-07-04T16:38:04.552Z,41.20
2018-07-04T16:40:43.440Z,41.60
2018-07-04T16:43:22.279Z,43.20
2018-07-04T16:46:01.189Z,43.60
2018-07-04T16:48:40.779Z,44.10
2018-07-04T16:54:08.480Z,42.30
2018-07-04T16:56:47.532Z,42.20
2018-07-04T16:59:28.050Z,42.70
2018-07-04T17:02:07.036Z,43.40
2018-07-04T17:04:45.875Z,43.20
2018-07-04T17:07:24.780Z,43.40
2018-07-04T17:10:03.900Z,43.70
2018-07-04T17:12:42.717Z,44.30
2018-07-04T17:15:23.322Z,45.00
2018-07-04T17:18:02.354Z,45.10
2018-07-04T17:23:14.268Z,45.60
2018-07-04T17:28:26.286Z,46.20
2018-07-04T17:31:05.114Z,46.90
2018-07-04T17:33:44.071Z,47.40
2018-07-04T17:36:23.731Z,47.90
2018-07-04T17:39:02.822Z,47.40
2018-07-04T17:41:46.213Z,46.80
2018-07-04T17:44:25.166Z,46.90
2018-07-04T17:47:04.191Z,47.30
2018-07-04T17:49:43.090Z,47.30
2018-07-04T17:52:22.157Z,48.50
2018-07-04T17:55:00.998Z,48.40
2018-07-04T17:57:39.841Z,48.00
2018-07-04T18:00:18.730Z,48.40
2018-07-04T18:02:57.448Z,50.00
2018-07-04T18:05:36.493Z,49.80
2018-07-04T18:08:15.359Z,49.70
2018-07-04T18:10:54.318Z,50.00
2018-07-04T18:13:33.104Z,49.70
2018-07-04T18:16:12.011Z,49.50
2018-07-04T18:18:50.970Z,50.10
2018-07-04T18:21:29.887Z,49.90
2018-07-04T18:24:08.809Z,50.10
2018-07-04T18:26:48.061Z,51.10
2018-07-04T18:29:27.154Z,51.00
2018-07-04T18:32:06.616Z,50.90
2018-07-04T18:34:45.529Z,52.80
2018-07-04T18:37:24.792Z,51.60
2018-07-04T18:40:03.685Z,52.70
2018-07-04T18:42:42.701Z,52.70
2018-07-04T18:45:21.620Z,53.40
2018-07-04T18:48:00.485Z,53.00
2018-07-04T18:50:39.188Z,52.90
2018-07-04T18:53:18.231Z,53.60
2018-07-04T18:55:57.302Z,53.90
2018-07-04T18:58:36.207Z,54.20
2018-07-04T19:01:15.958Z,54.00
2018-07-04T19:03:55.145Z,54.90
2018-07-04T19:06:34.359Z,55.40
2018-07-04T19:09:13.300Z,55.00
2018-07-04T19:11:52.097Z,56.00
2018-07-04T19:14:31.093Z,56.00
2018-07-04T19:17:10.032Z,56.40
2018-07-04T19:19:48.821Z,56.20
2018-07-04T19:22:27.700Z,56.50
2018-07-04T19:25:06.548Z,56.70
2018-07-04T19:27:45.498Z,56.10
2018-07-04T19:30:24.425Z,56.60
2018-07-04T19:33:03.314Z,57.50
2018-07-04T19:35:42.204Z,57.30
2018-07-04T19:38:21.220Z,58.00
2018-07-04T19:41:00.207Z,58.80
2018-07-04T19:43:39.127Z,58.40
2018-07-04T19:46:18.047Z,59.20
2018-07-04T19:48:57.388Z,59.50
2018-07-04T19:51:36.425Z,59.30
2018-07-04T19:54:15.652Z,59.90
2018-07-04T19:56:54.682Z,60.00
2018-07-04T19:59:33.813Z,60.00
2018-07-04T20:02:12.967Z,60.10
2018-07-04T20:04:51.968Z,60.50
2018-07-04T20:07:30.844Z,60.70
2018-07-04T20:10:09.802Z,60.80
2018-07-04T20:12:48.654Z,60.50
2018-07-04T20:15:27.698Z,61.30
2018-07-04T20:18:06.490Z,61.60
2018-07-04T20:20:45.360Z,61.00
2018-07-04T20:23:24.317Z,61.50
2018-07-04T20:26:04.942Z,62.30
2018-07-04T20:28:43.943Z,62.70
2018-07-04T20:31:23.070Z,63.00
2018-07-04T20:34:01.875Z,63.30
2018-07-04T20:36:40.948Z,63.00
2018-07-04T20:39:19.751Z,63.50
2018-07-04T20:41:58.611Z,63.70
2018-07-04T20:47:10.577Z,63.50
2018-07-04T20:49:49.496Z,63.70
2018-07-04T20:52:28.464Z,64.30
2018-07-04T20:55:07.391Z,64.30
2018-07-04T20:57:46.336Z,64.90
2018-07-04T21:00:25.131Z,65.30
2018-07-04T21:03:04.044Z,66.00
2018-07-04T21:05:42.894Z,66.00
2018-07-04T21:08:21.888Z,66.00
2018-07-04T21:11:00.782Z,66.20
2018-07-04T21:13:39.673Z,66.30
2018-07-04T21:16:18.541Z,66.30
2018-07-04T21:18:57.785Z,67.00
2018-07-04T21:21:36.709Z,68.10
2018-07-04T21:24:15.531Z,68.20
2018-07-04T21:26:54.465Z,67.60
2018-07-04T21:29:33.515Z,67.60
2018-07-04T21:32:12.467Z,68.30
2018-07-04T21:34:51.361Z,67.90
2018-07-04T21:37:30.268Z,68.00
2018-07-04T21:40:09.293Z,68.30
2018-07-04T21:42:48.108Z,68.30
2018-07-04T21:45:26.848Z,68.90
2018-07-04T21:48:05.728Z,69.50
2018-07-04T21:50:44.629Z,69.00
2018-07-04T21:53:23.552Z,69.40
2018-07-04T21:56:02.341Z,70.00
2018-07-04T21:58:41.234Z,70.40
2018-07-04T22:01:20.086Z,70.60
2018-07-04T22:03:59.307Z,70.90
2018-07-04T22:06:37.995Z,70.60
2018-07-04T22:09:16.941Z,70.30
2018-07-04T22:11:55.820Z,70.10
2018-07-04T22:14:34.667Z,70.20
2018-07-04T22:17:13.578Z,70.20
2018-07-04T22:19:52.472Z,70.30
2018-07-04T22:22:31.350Z,70.50
2018-07-04T22:25:10.163Z,70.50
2018-07-04T22:27:49.158Z,71.10
2018-07-04T22:30:28.140Z,71.40
2018-07-04T22:33:07.111Z,71.60
2018-07-04T22:35:45.978Z,71.50
2018-07-04T22:38:24.768Z,71.40
2018-07-04T22:41:03.790Z,71.70
2018-07-04T22:43:42.822Z,71.90
2018-07-04T22:46:21.644Z,72.50
2018-07-04T22:49:00.448Z,72.80
2018-07-04T22:51:39.364Z,73.00
2018-07-04T22:54:18.189Z,73.10
2018-07-04T22:56:57.094Z,73.10
2018-07-04T22:59:35.991Z,72.80
2018-07-04T23:04:48.085Z,73.00
2018-07-04T23:07:26.859Z,74.20
2018-07-04T23:10:05.912Z,73.40
2018-07-04T23:12:44.784Z,73.50
2018-07-04T23:15:23.744Z,73.60
2018-07-04T23:18:02.744Z,74.20
2018-07-04T23:23:14.757Z,75.20
2018-07-04T23:25:53.677Z,75.00
2018-07-04T23:28:32.651Z,74.70
2018-07-04T23:31:11.707Z,74.30
2018-07-04T23:33:50.566Z,74.30
2018-07-04T23:36:29.520Z,74.30
2018-07-04T23:39:08.451Z,74.50
2018-07-04T23:41:47.323Z,74.70
2018-07-04T23:44:26.070Z,75.00
2018-07-04T23:47:05.028Z,75.30
2018-07-04T23:49:43.995Z,75.70
2018-07-04T23:52:22.942Z,76.20
2018-07-04T23:55:01.817Z,76.50
2018-07-04T23:57:45.315Z,76.80
